sensor_id;sensor_type;location;lat;lon;timestamp;temperature;humidity
59975;DHT22;62136;-35.664;-63.766;2022-10-26T00:03:37;23.00;65.90
59975;DHT22;62136;-35.664;-63.766;2022-10-26T00:06:15;23.00;66.10
59975;DHT22;62136;-35.664;-63.766;2022-10-26T00:08:43;23.00;65.70
59975;DHT22;62136;-35.664;-63.766;2022-10-26T00:11:11;23.00;65.40
59975;DHT22;62136;-35.664;-63.766;2022-10-26T00:13:39;23.00;65.60
59975;DHT22;62136;-35.664;-63.766;2022-10-26T00:18:37;23.00;66.00
59975;DHT22;62136;-35.664;-63.766;2022-10-26T00:21:06;23.00;65.90
59975;DHT22;62136;-35.664;-63.766;2022-10-26T00:23:33;22.90;65.80
59975;DHT22;62136;-35.664;-63.766;2022-10-26T00:26:00;23.00;66.20
59975;DHT22;62136;-35.664;-63.766;2022-10-26T00:28:27;22.90;65.60
59975;DHT22;62136;-35.664;-63.766;2022-10-26T00:30:58;22.90;65.90
59975;DHT22;62136;-35.664;-63.766;2022-10-26T00:33:25;22.90;66.20
59975;DHT22;62136;-35.664;-63.766;2022-10-26T00:35:53;22.90;66.30
59975;DHT22;62136;-35.664;-63.766;2022-10-26T00:38:21;22.90;66.20
59975;DHT22;62136;-35.664;-63.766;2022-10-26T00:40:48;22.90;66.20
59975;DHT22;62136;-35.664;-63.766;2022-10-26T00:43:34;22.90;66.30
59975;DHT22;62136;-35.664;-63.766;2022-10-26T00:46:03;22.90;66.10
59975;DHT22;62136;-35.664;-63.766;2022-10-26T00:48:35;22.90;66.50
59975;DHT22;62136;-35.664;-63.766;2022-10-26T00:51:10;22.80;66.30
59975;DHT22;62136;-35.664;-63.766;2022-10-26T00:53:39;22.90;66.50
59975;DHT22;62136;-35.664;-63.766;2022-10-26T00:56:06;22.80;65.80
59975;DHT22;62136;-35.664;-63.766;2022-10-26T00:58:34;22.80;66.40
59975;DHT22;62136;-35.664;-63.766;2022-10-26T01:01:01;22.80;65.80
59975;DHT22;62136;-35.664;-63.766;2022-10-26T01:03:29;22.80;66.40
59975;DHT22;62136;-35.664;-63.766;2022-10-26T01:05:57;22.80;66.50
59975;DHT22;62136;-35.664;-63.766;2022-10-26T01:08:25;22.80;66.10
59975;DHT22;62136;-35.664;-63.766;2022-10-26T01:10:57;22.80;66.20
59975;DHT22;62136;-35.664;-63.766;2022-10-26T01:13:28;22.80;66.20
59975;DHT22;62136;-35.664;-63.766;2022-10-26T01:16:06;22.70;65.90
59975;DHT22;62136;-35.664;-63.766;2022-10-26T01:29:57;22.70;66.20
59975;DHT22;62136;-35.664;-63.766;2022-10-26T01:35:31;22.60;66.10
59975;DHT22;62136;-35.664;-63.766;2022-10-26T01:43:54;22.60;65.90
59975;DHT22;62136;-35.664;-63.766;2022-10-26T01:46:24;22.60;65.90
59975;DHT22;62136;-35.664;-63.766;2022-10-26T01:48:56;22.50;65.30
59975;DHT22;62136;-35.664;-63.766;2022-10-26T01:51:25;22.50;65.50
59975;DHT22;62136;-35.664;-63.766;2022-10-26T01:53:53;22.50;65.60
59975;DHT22;62136;-35.664;-63.766;2022-10-26T01:56:31;22.50;65.80
59975;DHT22;62136;-35.664;-63.766;2022-10-26T02:16:32;22.40;64.90
59975;DHT22;62136;-35.664;-63.766;2022-10-26T02:19:09;22.30;65.10
59975;DHT22;62136;-35.664;-63.766;2022-10-26T02:21:46;22.30;65.10
59975;DHT22;62136;-35.664;-63.766;2022-10-26T02:24:16;22.30;64.70
59975;DHT22;62136;-35.664;-63.766;2022-10-26T02:26:45;22.30;64.90
59975;DHT22;62136;-35.664;-63.766;2022-10-26T02:29:16;22.30;64.40
59975;DHT22;62136;-35.664;-63.766;2022-10-26T02:31:46;22.30;64.60
59975;DHT22;62136;-35.664;-63.766;2022-10-26T02:34:20;22.30;64.40
59975;DHT22;62136;-35.664;-63.766;2022-10-26T02:36:49;22.30;64.50
59975;DHT22;62136;-35.664;-63.766;2022-10-26T02:39:17;22.30;64.50
59975;DHT22;62136;-35.664;-63.766;2022-10-26T02:41:45;22.20;63.60
59975;DHT22;62136;-35.664;-63.766;2022-10-26T02:44:25;22.20;64.20
59975;DHT22;62136;-35.664;-63.766;2022-10-26T02:46:54;22.20;64.30
59975;DHT22;62136;-35.664;-63.766;2022-10-26T02:49:22;22.20;64.10
59975;DHT22;62136;-35.664;-63.766;2022-10-26T02:57:35;22.20;64.40
59975;DHT22;62136;-35.664;-63.766;2022-10-26T03:00:07;22.10;64.20
59975;DHT22;62136;-35.664;-63.766;2022-10-26T03:02:35;22.10;63.40
59975;DHT22;62136;-35.664;-63.766;2022-10-26T03:05:29;22.10;64.00
59975;DHT22;62136;-35.664;-63.766;2022-10-26T03:07:58;22.10;63.90
59975;DHT22;62136;-35.664;-63.766;2022-10-26T03:10:26;22.10;63.90
59975;DHT22;62136;-35.664;-63.766;2022-10-26T03:12:53;22.10;63.80
59975;DHT22;62136;-35.664;-63.766;2022-10-26T03:15:20;22.00;63.60
59975;DHT22;62136;-35.664;-63.766;2022-10-26T03:17:47;22.00;64.00
59975;DHT22;62136;-35.664;-63.766;2022-10-26T03:20:14;22.00;63.90
59975;DHT22;62136;-35.664;-63.766;2022-10-26T03:22:41;22.00;63.50
59975;DHT22;62136;-35.664;-63.766;2022-10-26T03:25:08;22.00;63.60
59975;DHT22;62136;-35.664;-63.766;2022-10-26T03:27:35;22.00;63.70
59975;DHT22;62136;-35.664;-63.766;2022-10-26T03:30:03;22.00;63.70
59975;DHT22;62136;-35.664;-63.766;2022-10-26T03:32:30;22.00;63.40
59975;DHT22;62136;-35.664;-63.766;2022-10-26T03:34:57;21.90;63.90
59975;DHT22;62136;-35.664;-63.766;2022-10-26T03:37:25;21.90;63.70
59975;DHT22;62136;-35.664;-63.766;2022-10-26T03:39:52;21.90;63.70
59975;DHT22;62136;-35.664;-63.766;2022-10-26T03:42:19;21.90;63.30
59975;DHT22;62136;-35.664;-63.766;2022-10-26T03:44:46;21.90;63.80
59975;DHT22;62136;-35.664;-63.766;2022-10-26T03:47:13;21.90;63.60
59975;DHT22;62136;-35.664;-63.766;2022-10-26T03:49:43;21.80;63.50
59975;DHT22;62136;-35.664;-63.766;2022-10-26T03:52:10;21.80;63.60
59975;DHT22;62136;-35.664;-63.766;2022-10-26T03:54:37;21.80;63.80
59975;DHT22;62136;-35.664;-63.766;2022-10-26T03:57:04;21.80;63.60
59975;DHT22;62136;-35.664;-63.766;2022-10-26T03:59:37;21.80;63.50
59975;DHT22;62136;-35.664;-63.766;2022-10-26T04:02:04;21.80;63.60
59975;DHT22;62136;-35.664;-63.766;2022-10-26T04:04:31;21.80;63.60
59975;DHT22;62136;-35.664;-63.766;2022-10-26T04:06:58;21.80;63.70
59975;DHT22;62136;-35.664;-63.766;2022-10-26T04:09:25;21.80;63.70
59975;DHT22;62136;-35.664;-63.766;2022-10-26T04:11:52;21.80;63.70
59975;DHT22;62136;-35.664;-63.766;2022-10-26T04:14:19;21.70;63.60
59975;DHT22;62136;-35.664;-63.766;2022-10-26T04:16:46;21.70;63.60
59975;DHT22;62136;-35.664;-63.766;2022-10-26T04:19:13;21.70;63.70
59975;DHT22;62136;-35.664;-63.766;2022-10-26T04:21:43;21.70;63.80
59975;DHT22;62136;-35.664;-63.766;2022-10-26T04:24:10;21.70;63.60
59975;DHT22;62136;-35.664;-63.766;2022-10-26T04:26:37;21.60;63.70
59975;DHT22;62136;-35.664;-63.766;2022-10-26T04:29:08;21.60;63.60
59975;DHT22;62136;-35.664;-63.766;2022-10-26T04:31:35;21.60;63.70
59975;DHT22;62136;-35.664;-63.766;2022-10-26T04:34:02;21.60;63.60
59975;DHT22;62136;-35.664;-63.766;2022-10-26T04:36:29;21.60;63.80
59975;DHT22;62136;-35.664;-63.766;2022-10-26T04:38:59;21.60;63.30
59975;DHT22;62136;-35.664;-63.766;2022-10-26T04:41:27;21.50;63.60
59975;DHT22;62136;-35.664;-63.766;2022-10-26T04:43:53;21.50;63.60
59975;DHT22;62136;-35.664;-63.766;2022-10-26T04:46:20;21.50;63.60
59975;DHT22;62136;-35.664;-63.766;2022-10-26T04:48:48;21.50;63.70
59975;DHT22;62136;-35.664;-63.766;2022-10-26T04:51:15;21.50;63.60
59975;DHT22;62136;-35.664;-63.766;2022-10-26T04:53:42;21.50;63.70
59975;DHT22;62136;-35.664;-63.766;2022-10-26T04:56:09;21.50;63.80
59975;DHT22;62136;-35.664;-63.766;2022-10-26T04:58:36;21.50;63.60
59975;DHT22;62136;-35.664;-63.766;2022-10-26T05:01:09;21.40;63.10
59975;DHT22;62136;-35.664;-63.766;2022-10-26T05:03:36;21.40;63.40
59975;DHT22;62136;-35.664;-63.766;2022-10-26T05:06:03;21.40;63.40
59975;DHT22;62136;-35.664;-63.766;2022-10-26T05:08:32;21.40;63.40
59975;DHT22;62136;-35.664;-63.766;2022-10-26T05:11:05;21.40;63.50
59975;DHT22;62136;-35.664;-63.766;2022-10-26T05:13:32;21.40;63.40
59975;DHT22;62136;-35.664;-63.766;2022-10-26T05:15:59;21.40;63.50
59975;DHT22;62136;-35.664;-63.766;2022-10-26T05:18:26;21.40;63.30
59975;DHT22;62136;-35.664;-63.766;2022-10-26T05:20:53;21.30;63.30
59975;DHT22;62136;-35.664;-63.766;2022-10-26T05:23:23;21.30;63.10
59975;DHT22;62136;-35.664;-63.766;2022-10-26T05:25:50;21.40;63.20
59975;DHT22;62136;-35.664;-63.766;2022-10-26T05:28:17;21.30;63.60
59975;DHT22;62136;-35.664;-63.766;2022-10-26T05:30:45;21.30;62.80
59975;DHT22;62136;-35.664;-63.766;2022-10-26T05:33:13;21.30;63.10
59975;DHT22;62136;-35.664;-63.766;2022-10-26T05:35:40;21.30;63.30
59975;DHT22;62136;-35.664;-63.766;2022-10-26T05:38:15;21.30;63.40
59975;DHT22;62136;-35.664;-63.766;2022-10-26T05:40:50;21.30;63.40
59975;DHT22;62136;-35.664;-63.766;2022-10-26T05:43:19;21.30;63.40
59975;DHT22;62136;-35.664;-63.766;2022-10-26T05:45:46;21.30;63.50
59975;DHT22;62136;-35.664;-63.766;2022-10-26T05:48:15;21.30;63.50
59975;DHT22;62136;-35.664;-63.766;2022-10-26T05:50:45;21.20;63.40
59975;DHT22;62136;-35.664;-63.766;2022-10-26T05:53:15;21.30;63.50
59975;DHT22;62136;-35.664;-63.766;2022-10-26T05:55:42;21.30;63.50
59975;DHT22;62136;-35.664;-63.766;2022-10-26T05:58:14;21.20;63.60
59975;DHT22;62136;-35.664;-63.766;2022-10-26T06:03:42;21.20;63.80
59975;DHT22;62136;-35.664;-63.766;2022-10-26T06:06:12;21.20;63.80
59975;DHT22;62136;-35.664;-63.766;2022-10-26T06:08:40;21.20;64.30
59975;DHT22;62136;-35.664;-63.766;2022-10-26T06:11:08;21.20;63.90
59975;DHT22;62136;-35.664;-63.766;2022-10-26T06:13:36;21.20;63.90
59975;DHT22;62136;-35.664;-63.766;2022-10-26T06:16:17;21.20;63.80
59975;DHT22;62136;-35.664;-63.766;2022-10-26T06:21:45;21.20;64.10
59975;DHT22;62136;-35.664;-63.766;2022-10-26T06:24:37;21.20;64.10
59975;DHT22;62136;-35.664;-63.766;2022-10-26T06:29:54;21.20;64.40
59975;DHT22;62136;-35.664;-63.766;2022-10-26T06:32:23;21.20;64.30
59975;DHT22;62136;-35.664;-63.766;2022-10-26T06:34:52;21.10;64.30
59975;DHT22;62136;-35.664;-63.766;2022-10-26T06:37:24;21.10;64.30
59975;DHT22;62136;-35.664;-63.766;2022-10-26T06:39:52;21.10;64.70
59975;DHT22;62136;-35.664;-63.766;2022-10-26T06:42:20;21.10;64.60
59975;DHT22;62136;-35.664;-63.766;2022-10-26T06:44:48;21.10;64.60
59975;DHT22;62136;-35.664;-63.766;2022-10-26T06:47:36;21.10;64.80
59975;DHT22;62136;-35.664;-63.766;2022-10-26T06:53:32;21.10;65.00
59975;DHT22;62136;-35.664;-63.766;2022-10-26T06:55:51;21.10;65.00
59975;DHT22;62136;-35.664;-63.766;2022-10-26T06:58:28;21.10;65.00
59975;DHT22;62136;-35.664;-63.766;2022-10-26T07:00:56;21.00;65.00
59975;DHT22;62136;-35.664;-63.766;2022-10-26T07:03:24;21.00;65.00
59975;DHT22;62136;-35.664;-63.766;2022-10-26T07:05:51;21.10;65.20
59975;DHT22;62136;-35.664;-63.766;2022-10-26T07:08:18;21.00;65.20
59975;DHT22;62136;-35.664;-63.766;2022-10-26T07:10:46;21.00;65.30
59975;DHT22;62136;-35.664;-63.766;2022-10-26T07:13:13;21.00;65.50
59975;DHT22;62136;-35.664;-63.766;2022-10-26T07:15:40;21.00;65.30
59975;DHT22;62136;-35.664;-63.766;2022-10-26T07:18:08;21.00;65.40
59975;DHT22;62136;-35.664;-63.766;2022-10-26T07:20:37;20.90;65.50
59975;DHT22;62136;-35.664;-63.766;2022-10-26T07:23:05;21.00;65.50
59975;DHT22;62136;-35.664;-63.766;2022-10-26T07:25:34;21.00;65.50
59975;DHT22;62136;-35.664;-63.766;2022-10-26T07:28:04;21.00;65.50
59975;DHT22;62136;-35.664;-63.766;2022-10-26T07:30:31;21.00;65.60
59975;DHT22;62136;-35.664;-63.766;2022-10-26T07:33:00;21.00;65.30
59975;DHT22;62136;-35.664;-63.766;2022-10-26T07:35:27;20.90;65.50
59975;DHT22;62136;-35.664;-63.766;2022-10-26T07:37:59;21.00;65.60
59975;DHT22;62136;-35.664;-63.766;2022-10-26T07:40:27;21.00;65.70
59975;DHT22;62136;-35.664;-63.766;2022-10-26T07:42:58;20.90;65.70
59975;DHT22;62136;-35.664;-63.766;2022-10-26T07:45:26;20.90;65.70
59975;DHT22;62136;-35.664;-63.766;2022-10-26T07:47:54;20.90;65.90
59975;DHT22;62136;-35.664;-63.766;2022-10-26T07:50:21;20.90;65.60
59975;DHT22;62136;-35.664;-63.766;2022-10-26T07:52:48;20.90;65.70
59975;DHT22;62136;-35.664;-63.766;2022-10-26T07:55:15;20.90;65.70
59975;DHT22;62136;-35.664;-63.766;2022-10-26T07:57:42;20.90;65.70
59975;DHT22;62136;-35.664;-63.766;2022-10-26T08:00:10;20.90;65.70
59975;DHT22;62136;-35.664;-63.766;2022-10-26T08:02:37;20.90;65.70
59975;DHT22;62136;-35.664;-63.766;2022-10-26T08:05:04;20.90;65.80
59975;DHT22;62136;-35.664;-63.766;2022-10-26T08:07:31;20.90;66.20
59975;DHT22;62136;-35.664;-63.766;2022-10-26T08:09:58;20.90;65.80
59975;DHT22;62136;-35.664;-63.766;2022-10-26T08:12:26;20.90;65.70
59975;DHT22;62136;-35.664;-63.766;2022-10-26T08:14:53;20.90;65.80
59975;DHT22;62136;-35.664;-63.766;2022-10-26T08:17:20;20.90;65.70
59975;DHT22;62136;-35.664;-63.766;2022-10-26T08:19:48;20.80;66.00
59975;DHT22;62136;-35.664;-63.766;2022-10-26T08:22:15;20.80;65.90
59975;DHT22;62136;-35.664;-63.766;2022-10-26T08:24:42;20.80;66.10
59975;DHT22;62136;-35.664;-63.766;2022-10-26T08:27:13;20.80;65.70
59975;DHT22;62136;-35.664;-63.766;2022-10-26T08:29:41;20.80;65.70
59975;DHT22;62136;-35.664;-63.766;2022-10-26T08:32:09;20.80;66.00
59975;DHT22;62136;-35.664;-63.766;2022-10-26T08:34:36;20.80;66.00
59975;DHT22;62136;-35.664;-63.766;2022-10-26T08:37:03;20.80;66.00
59975;DHT22;62136;-35.664;-63.766;2022-10-26T08:39:30;20.80;66.00
59975;DHT22;62136;-35.664;-63.766;2022-10-26T08:42:24;20.80;66.10
59975;DHT22;62136;-35.664;-63.766;2022-10-26T08:45:01;20.80;66.10
59975;DHT22;62136;-35.664;-63.766;2022-10-26T08:47:36;20.80;66.10
59975;DHT22;62136;-35.664;-63.766;2022-10-26T08:50:36;20.80;66.10
59975;DHT22;62136;-35.664;-63.766;2022-10-26T08:53:10;20.80;66.30
59975;DHT22;62136;-35.664;-63.766;2022-10-26T08:55:52;20.80;66.30
59975;DHT22;62136;-35.664;-63.766;2022-10-26T08:58:27;20.70;66.30
59975;DHT22;62136;-35.664;-63.766;2022-10-26T09:00:55;20.80;66.20
59975;DHT22;62136;-35.664;-63.766;2022-10-26T09:03:22;20.70;66.20
59975;DHT22;62136;-35.664;-63.766;2022-10-26T09:06:15;20.70;66.20
59975;DHT22;62136;-35.664;-63.766;2022-10-26T09:08:50;20.70;66.20
59975;DHT22;62136;-35.664;-63.766;2022-10-26T09:25:18;20.70;66.60
59975;DHT22;62136;-35.664;-63.766;2022-10-26T09:27:54;20.60;66.50
59975;DHT22;62136;-35.664;-63.766;2022-10-26T09:30:22;20.60;66.50
59975;DHT22;62136;-35.664;-63.766;2022-10-26T09:33:16;20.60;66.60
59975;DHT22;62136;-35.664;-63.766;2022-10-26T09:35:56;20.60;66.60
59975;DHT22;62136;-35.664;-63.766;2022-10-26T09:38:27;20.60;67.30
59975;DHT22;62136;-35.664;-63.766;2022-10-26T09:43:43;20.60;66.80
59975;DHT22;62136;-35.664;-63.766;2022-10-26T09:46:22;20.60;66.70
59975;DHT22;62136;-35.664;-63.766;2022-10-26T09:48:56;20.50;66.70
59975;DHT22;62136;-35.664;-63.766;2022-10-26T09:51:24;20.60;66.70
59975;DHT22;62136;-35.664;-63.766;2022-10-26T09:53:54;20.60;66.70
59975;DHT22;62136;-35.664;-63.766;2022-10-26T09:56:24;20.50;66.70
59975;DHT22;62136;-35.664;-63.766;2022-10-26T09:59:03;20.60;66.80
59975;DHT22;62136;-35.664;-63.766;2022-10-26T10:01:33;20.60;66.70
59975;DHT22;62136;-35.664;-63.766;2022-10-26T10:06:49;20.60;66.80
59975;DHT22;62136;-35.664;-63.766;2022-10-26T10:15:24;20.60;66.90
59975;DHT22;62136;-35.664;-63.766;2022-10-26T10:17:21;20.60;66.90
59975;DHT22;62136;-35.664;-63.766;2022-10-26T10:19:49;20.60;67.00
59975;DHT22;62136;-35.664;-63.766;2022-10-26T10:22:25;20.60;67.10
59975;DHT22;62136;-35.664;-63.766;2022-10-26T10:27:24;20.50;66.70
59975;DHT22;62136;-35.664;-63.766;2022-10-26T10:29:53;20.60;66.90
59975;DHT22;62136;-35.664;-63.766;2022-10-26T10:32:28;20.50;67.00
59975;DHT22;62136;-35.664;-63.766;2022-10-26T10:35:01;20.50;67.00
59975;DHT22;62136;-35.664;-63.766;2022-10-26T10:37:38;20.50;67.00
59975;DHT22;62136;-35.664;-63.766;2022-10-26T10:42:43;20.60;67.10
59975;DHT22;62136;-35.664;-63.766;2022-10-26T10:45:26;20.60;67.10
59975;DHT22;62136;-35.664;-63.766;2022-10-26T10:48:20;20.60;67.10
59975;DHT22;62136;-35.664;-63.766;2022-10-26T10:53:43;20.60;67.10
59975;DHT22;62136;-35.664;-63.766;2022-10-26T11:02:15;20.50;67.30
59975;DHT22;62136;-35.664;-63.766;2022-10-26T11:05:16;20.60;67.30
59975;DHT22;62136;-35.664;-63.766;2022-10-26T11:10:52;20.50;67.20
59975;DHT22;62136;-35.664;-63.766;2022-10-26T11:13:50;20.60;67.50
59975;DHT22;62136;-35.664;-63.766;2022-10-26T11:16:36;20.50;67.40
59975;DHT22;62136;-35.664;-63.766;2022-10-26T11:21:36;20.50;67.40
59975;DHT22;62136;-35.664;-63.766;2022-10-26T11:24:23;20.50;67.60
59975;DHT22;62136;-35.664;-63.766;2022-10-26T11:32:44;20.50;68.20
59975;DHT22;62136;-35.664;-63.766;2022-10-26T11:35:27;20.50;68.70
59975;DHT22;62136;-35.664;-63.766;2022-10-26T11:43:48;20.50;72.60
59975;DHT22;62136;-35.664;-63.766;2022-10-26T11:46:36;20.60;74.60
59975;DHT22;62136;-35.664;-63.766;2022-10-26T11:53:16;20.60;79.20
59975;DHT22;62136;-35.664;-63.766;2022-10-26T11:55:39;20.70;80.60
59975;DHT22;62136;-35.664;-63.766;2022-10-26T11:58:11;20.80;82.00
59975;DHT22;62136;-35.664;-63.766;2022-10-26T12:00:46;20.90;83.60
59975;DHT22;62136;-35.664;-63.766;2022-10-26T12:03:19;20.90;84.70
59975;DHT22;62136;-35.664;-63.766;2022-10-26T12:05:52;20.90;86.10
59975;DHT22;62136;-35.664;-63.766;2022-10-26T12:08:36;21.10;86.80
59975;DHT22;62136;-35.664;-63.766;2022-10-26T12:14:34;21.20;89.20
59975;DHT22;62136;-35.664;-63.766;2022-10-26T12:19:46;21.40;90.30
59975;DHT22;62136;-35.664;-63.766;2022-10-26T12:22:17;21.50;90.60
59975;DHT22;62136;-35.664;-63.766;2022-10-26T12:25:05;21.60;90.70
59975;DHT22;62136;-35.664;-63.766;2022-10-26T12:35:41;22.10;90.60
59975;DHT22;62136;-35.664;-63.766;2022-10-26T12:38:55;22.20;90.50
59975;DHT22;62136;-35.664;-63.766;2022-10-26T12:41:22;22.30;90.20
59975;DHT22;62136;-35.664;-63.766;2022-10-26T12:43:53;22.40;89.80
59975;DHT22;62136;-35.664;-63.766;2022-10-26T12:48:49;22.50;87.50
59975;DHT22;62136;-35.664;-63.766;2022-10-26T12:57:09;22.70;85.50
59975;DHT22;62136;-35.664;-63.766;2022-10-26T13:08:05;23.10;79.40
59975;DHT22;62136;-35.664;-63.766;2022-10-26T13:10:32;23.10;78.00
59975;DHT22;62136;-35.664;-63.766;2022-10-26T13:13:03;23.20;77.20
59975;DHT22;62136;-35.664;-63.766;2022-10-26T13:15:37;23.30;75.50
59975;DHT22;62136;-35.664;-63.766;2022-10-26T13:18:09;23.30;73.50
59975;DHT22;62136;-35.664;-63.766;2022-10-26T13:23:27;23.30;70.00
59975;DHT22;62136;-35.664;-63.766;2022-10-26T13:26:13;23.40;70.40
59975;DHT22;62136;-35.664;-63.766;2022-10-26T13:28:42;23.40;69.40
59975;DHT22;62136;-35.664;-63.766;2022-10-26T13:34:17;23.60;69.20
59975;DHT22;62136;-35.664;-63.766;2022-10-26T13:39:46;23.60;69.00
59975;DHT22;62136;-35.664;-63.766;2022-10-26T13:42:17;23.70;68.80
59975;DHT22;62136;-35.664;-63.766;2022-10-26T13:45:06;23.70;70.20
59975;DHT22;62136;-35.664;-63.766;2022-10-26T13:50:27;23.90;69.50
59975;DHT22;62136;-35.664;-63.766;2022-10-26T13:53:12;23.90;69.70
59975;DHT22;62136;-35.664;-63.766;2022-10-26T14:01:11;24.10;69.20
59975;DHT22;62136;-35.664;-63.766;2022-10-26T14:03:40;24.20;70.60
59975;DHT22;62136;-35.664;-63.766;2022-10-26T14:06:20;24.30;70.40
59975;DHT22;62136;-35.664;-63.766;2022-10-26T14:08:50;24.30;69.30
59975;DHT22;62136;-35.664;-63.766;2022-10-26T14:11:29;24.30;70.40
59975;DHT22;62136;-35.664;-63.766;2022-10-26T14:13:57;24.20;71.50
59975;DHT22;62136;-35.664;-63.766;2022-10-26T14:16:30;24.20;71.90
59975;DHT22;62136;-35.664;-63.766;2022-10-26T14:18:58;24.20;72.40
59975;DHT22;62136;-35.664;-63.766;2022-10-26T14:21:26;24.30;72.20
59975;DHT22;62136;-35.664;-63.766;2022-10-26T14:23:59;24.30;71.30
59975;DHT22;62136;-35.664;-63.766;2022-10-26T14:26:40;24.30;71.60
59975;DHT22;62136;-35.664;-63.766;2022-10-26T14:29:19;24.30;72.00
59975;DHT22;62136;-35.664;-63.766;2022-10-26T14:31:47;24.30;70.30
59975;DHT22;62136;-35.664;-63.766;2022-10-26T14:34:18;24.30;71.10
59975;DHT22;62136;-35.664;-63.766;2022-10-26T14:39:37;24.10;71.60
59975;DHT22;62136;-35.664;-63.766;2022-10-26T14:42:27;23.90;70.80
59975;DHT22;62136;-35.664;-63.766;2022-10-26T14:44:55;23.80;68.10
59975;DHT22;62136;-35.664;-63.766;2022-10-26T14:47:28;23.70;67.50
59975;DHT22;62136;-35.664;-63.766;2022-10-26T14:49:59;23.60;67.00
59975;DHT22;62136;-35.664;-63.766;2022-10-26T14:52:33;23.50;67.90
59975;DHT22;62136;-35.664;-63.766;2022-10-26T14:55:23;23.50;66.90
59975;DHT22;62136;-35.664;-63.766;2022-10-26T14:57:51;23.40;67.70
59975;DHT22;62136;-35.664;-63.766;2022-10-26T15:00:24;23.40;67.70
59975;DHT22;62136;-35.664;-63.766;2022-10-26T15:02:55;23.30;65.10
59975;DHT22;62136;-35.664;-63.766;2022-10-26T15:05:32;23.20;64.10
59975;DHT22;62136;-35.664;-63.766;2022-10-26T15:07:59;23.20;67.00
59975;DHT22;62136;-35.664;-63.766;2022-10-26T15:13:27;23.20;61.60
59975;DHT22;62136;-35.664;-63.766;2022-10-26T15:16:08;23.20;61.00
59975;DHT22;62136;-35.664;-63.766;2022-10-26T15:18:37;23.20;64.20
59975;DHT22;62136;-35.664;-63.766;2022-10-26T15:23:54;23.20;61.30
59975;DHT22;62136;-35.664;-63.766;2022-10-26T15:26:22;23.20;63.10
59975;DHT22;62136;-35.664;-63.766;2022-10-26T15:28:50;23.20;63.40
59975;DHT22;62136;-35.664;-63.766;2022-10-26T15:36:20;23.20;58.10
59975;DHT22;62136;-35.664;-63.766;2022-10-26T15:38:48;23.20;59.30
59975;DHT22;62136;-35.664;-63.766;2022-10-26T15:43:50;23.20;57.90
59975;DHT22;62136;-35.664;-63.766;2022-10-26T15:46:19;23.20;57.20
59975;DHT22;62136;-35.664;-63.766;2022-10-26T15:48:56;23.20;55.70
59975;DHT22;62136;-35.664;-63.766;2022-10-26T15:51:23;23.20;56.00
59975;DHT22;62136;-35.664;-63.766;2022-10-26T15:53:51;23.20;55.40
59975;DHT22;62136;-35.664;-63.766;2022-10-26T15:56:21;23.30;55.50
59975;DHT22;62136;-35.664;-63.766;2022-10-26T15:58:50;23.30;56.10
59975;DHT22;62136;-35.664;-63.766;2022-10-26T16:01:26;23.30;54.20
59975;DHT22;62136;-35.664;-63.766;2022-10-26T16:03:54;23.40;53.60
59975;DHT22;62136;-35.664;-63.766;2022-10-26T16:06:27;23.40;53.80
59975;DHT22;62136;-35.664;-63.766;2022-10-26T16:08:57;23.40;53.30
59975;DHT22;62136;-35.664;-63.766;2022-10-26T16:11:24;23.50;52.60
59975;DHT22;62136;-35.664;-63.766;2022-10-26T16:13:52;23.50;53.50
59975;DHT22;62136;-35.664;-63.766;2022-10-26T16:16:19;23.40;52.10
59975;DHT22;62136;-35.664;-63.766;2022-10-26T16:18:54;23.40;53.40
59975;DHT22;62136;-35.664;-63.766;2022-10-26T16:21:26;23.50;53.40
59975;DHT22;62136;-35.664;-63.766;2022-10-26T16:23:55;23.40;53.20
59975;DHT22;62136;-35.664;-63.766;2022-10-26T16:26:25;23.40;52.00
59975;DHT22;62136;-35.664;-63.766;2022-10-26T16:28:52;23.30;52.20
59975;DHT22;62136;-35.664;-63.766;2022-10-26T16:31:20;23.30;54.10
59975;DHT22;62136;-35.664;-63.766;2022-10-26T16:33:47;23.30;53.90
59975;DHT22;62136;-35.664;-63.766;2022-10-26T16:36:14;23.30;54.60
59975;DHT22;62136;-35.664;-63.766;2022-10-26T16:38:42;23.30;53.80
59975;DHT22;62136;-35.664;-63.766;2022-10-26T16:41:11;23.40;53.90
59975;DHT22;62136;-35.664;-63.766;2022-10-26T16:43:40;23.40;53.40
59975;DHT22;62136;-35.664;-63.766;2022-10-26T16:46:10;23.50;53.90
59975;DHT22;62136;-35.664;-63.766;2022-10-26T16:48:39;23.50;53.90
59975;DHT22;62136;-35.664;-63.766;2022-10-26T16:53:38;23.60;50.60
59975;DHT22;62136;-35.664;-63.766;2022-10-26T16:56:08;23.60;50.10
59975;DHT22;62136;-35.664;-63.766;2022-10-26T16:58:36;23.70;49.40
59975;DHT22;62136;-35.664;-63.766;2022-10-26T17:01:04;23.80;48.60
59975;DHT22;62136;-35.664;-63.766;2022-10-26T17:03:31;23.80;49.90
59975;DHT22;62136;-35.664;-63.766;2022-10-26T17:06:04;23.70;49.30
59975;DHT22;62136;-35.664;-63.766;2022-10-26T17:08:32;23.60;50.10
59975;DHT22;62136;-35.664;-63.766;2022-10-26T17:11:07;23.50;50.00
59975;DHT22;62136;-35.664;-63.766;2022-10-26T17:13:38;23.40;50.30
59975;DHT22;62136;-35.664;-63.766;2022-10-26T17:16:38;23.30;48.00
59975;DHT22;62136;-35.664;-63.766;2022-10-26T17:19:10;23.30;50.30
59975;DHT22;62136;-35.664;-63.766;2022-10-26T17:21:40;23.40;50.00
59975;DHT22;62136;-35.664;-63.766;2022-10-26T17:24:09;23.60;49.20
59975;DHT22;62136;-35.664;-63.766;2022-10-26T17:26:37;23.70;49.20
59975;DHT22;62136;-35.664;-63.766;2022-10-26T17:29:04;23.80;48.50
59975;DHT22;62136;-35.664;-63.766;2022-10-26T17:31:31;23.90;48.50
59975;DHT22;62136;-35.664;-63.766;2022-10-26T17:33:59;24.00;47.70
59975;DHT22;62136;-35.664;-63.766;2022-10-26T17:36:26;24.10;47.70
59975;DHT22;62136;-35.664;-63.766;2022-10-26T17:38:54;24.10;47.10
59975;DHT22;62136;-35.664;-63.766;2022-10-26T17:41:23;24.10;47.00
59975;DHT22;62136;-35.664;-63.766;2022-10-26T17:43:52;24.20;47.00
59975;DHT22;62136;-35.664;-63.766;2022-10-26T17:46:21;24.20;47.10
59975;DHT22;62136;-35.664;-63.766;2022-10-26T17:48:56;24.20;47.00
59975;DHT22;62136;-35.664;-63.766;2022-10-26T17:51:24;24.20;46.80
59975;DHT22;62136;-35.664;-63.766;2022-10-26T17:53:51;24.20;46.90
59975;DHT22;62136;-35.664;-63.766;2022-10-26T17:56:21;24.30;46.90
59975;DHT22;62136;-35.664;-63.766;2022-10-26T17:58:56;24.30;46.90
59975;DHT22;62136;-35.664;-63.766;2022-10-26T18:01:24;24.30;47.00
59975;DHT22;62136;-35.664;-63.766;2022-10-26T18:03:52;24.30;46.80
59975;DHT22;62136;-35.664;-63.766;2022-10-26T18:06:20;24.30;46.80
59975;DHT22;62136;-35.664;-63.766;2022-10-26T18:08:47;24.30;46.80
59975;DHT22;62136;-35.664;-63.766;2022-10-26T18:11:16;24.40;46.80
59975;DHT22;62136;-35.664;-63.766;2022-10-26T18:13:45;24.40;46.90
59975;DHT22;62136;-35.664;-63.766;2022-10-26T18:16:17;24.30;46.80
59975;DHT22;62136;-35.664;-63.766;2022-10-26T18:18:45;24.40;46.80